createdAt,value
2018-02-25T00:00:18.003Z,-2.89
2018-02-25T00:01:17.722Z,-2.91
2018-02-25T00:02:17.934Z,-2.88
2018-02-25T00:03:17.916Z,-2.86
2018-02-25T00:04:17.614Z,-2.84
2018-02-25T00:05:17.836Z,-2.84
2018-02-25T00:06:17.786Z,-2.86
2018-02-25T00:07:17.755Z,-2.83
2018-02-25T00:08:17.467Z,-2.84
2018-02-25T00:09:17.707Z,-2.91
2018-02-25T00:10:17.660Z,-2.91
2018-02-25T00:11:17.612Z,-2.91
2018-02-25T00:12:17.579Z,-2.92
2018-02-25T00:13:17.542Z,-2.91
2018-02-25T00:14:17.511Z,-2.89
2018-02-25T00:15:17.465Z,-2.95
2018-02-25T00:16:17.434Z,-3.02
2018-02-25T00:17:17.396Z,-3.01
2018-02-25T00:18:17.355Z,-3.01
2018-02-25T00:19:17.325Z,-2.97
2018-02-25T00:20:17.287Z,-2.99
2018-02-25T00:21:17.004Z,-2.95
2018-02-25T00:22:16.965Z,-2.95
2018-02-25T00:23:17.180Z,-3.04
2018-02-25T00:24:16.898Z,-3.01
2018-02-25T00:25:17.113Z,-2.97
2018-02-25T00:26:16.824Z,-3.01
2018-02-25T00:27:17.038Z,-2.95
2018-02-25T00:28:17.003Z,-2.98
2018-02-25T00:29:16.964Z,-3.07
2018-02-25T00:30:16.928Z,-3.02
2018-02-25T00:31:16.650Z,-2.92
2018-02-25T00:32:16.852Z,-2.98
2018-02-25T00:33:16.820Z,-3.07
2018-02-25T00:34:16.786Z,-3.04
2018-02-25T00:35:16.749Z,-2.94
2018-02-25T00:36:16.711Z,-3.1
2018-02-25T00:37:16.678Z,-3.02
2018-02-25T00:38:16.642Z,-3.02
2018-02-25T00:39:16.603Z,-3.04
2018-02-25T00:40:16.570Z,-2.97
2018-02-25T00:41:16.535Z,-3.01
2018-02-25T00:42:16.497Z,-3.1
2018-02-25T00:43:16.458Z,-3.1
2018-02-25T00:44:16.425Z,-3.1
2018-02-25T00:45:16.389Z,-3.13
2018-02-25T00:46:16.354Z,-3.13
2018-02-25T00:47:16.449Z,-3.13
2018-02-25T00:48:16.274Z,-3.09
2018-02-25T00:49:16.244Z,-3.1
2018-02-25T00:50:16.209Z,-3.17
2018-02-25T00:51:15.922Z,-3.2
2018-02-25T00:52:16.134Z,-3.13
2018-02-25T00:53:16.107Z,-3.16
2018-02-25T00:54:16.064Z,-3.19
2018-02-25T00:55:16.031Z,-3.27
2018-02-25T00:56:15.996Z,-3.27
2018-02-25T00:57:15.953Z,-3.23
2018-02-25T00:58:15.922Z,-3.33
2018-02-25T00:59:15.883Z,-3.3
2018-02-25T01:00:15.851Z,-3.27
2018-02-25T01:01:15.558Z,-3.31
2018-02-25T01:02:15.770Z,-3.3
2018-02-25T01:03:15.744Z,-3.41
2018-02-25T01:04:15.803Z,-3.4
2018-02-25T01:05:15.422Z,-3.38
2018-02-25T01:06:15.637Z,-3.38
2018-02-25T01:07:15.597Z,-3.35
2018-02-25T01:08:15.558Z,-3.34
2018-02-25T01:09:15.530Z,-3.27
2018-02-25T01:10:15.487Z,-3.44
2018-02-25T01:11:15.450Z,-3.34
2018-02-25T01:12:15.422Z,-3.35
2018-02-25T01:13:15.388Z,-3.44
2018-02-25T01:14:15.348Z,-3.38
2018-02-25T01:15:15.307Z,-3.4
2018-02-25T01:16:15.273Z,-3.38
2018-02-25T01:17:15.235Z,-3.37
2018-02-25T01:18:15.202Z,-3.38
2018-02-25T01:19:15.162Z,-3.51
2018-02-25T01:20:15.123Z,-3.51
2018-02-25T01:21:15.087Z,-3.44
2018-02-25T01:22:14.799Z,-3.46
2018-02-25T01:23:15.015Z,-3.45
2018-02-25T01:24:14.974Z,-3.55
2018-02-25T01:25:14.939Z,-3.52
2018-02-25T01:26:14.907Z,-3.55
2018-02-25T01:27:14.879Z,-3.52
2018-02-25T01:28:14.833Z,-3.52
2018-02-25T01:29:14.799Z,-3.52
2018-02-25T01:30:14.512Z,-3.55
2018-02-25T01:31:14.727Z,-3.54
2018-02-25T01:32:14.193Z,-3.56
2018-02-25T01:33:14.653Z,-3.58
2018-02-25T01:34:14.624Z,-3.52
2018-02-25T01:35:14.580Z,-3.64
2018-02-25T01:36:14.545Z,-3.58
2018-02-25T01:37:14.505Z,-3.63
2018-02-25T01:38:14.471Z,-3.59
2018-02-25T01:39:14.434Z,-3.63
2018-02-25T01:40:14.396Z,-3.45
2018-02-25T01:41:14.362Z,-3.55
2018-02-25T01:42:14.322Z,-3.59
2018-02-25T01:43:14.292Z,-3.63
2018-02-25T01:44:14.252Z,-3.63
2018-02-25T01:45:14.217Z,-3.59
2018-02-25T01:46:13.927Z,-3.59
2018-02-25T01:47:14.153Z,-3.63
2018-02-25T01:48:14.109Z,-3.59
2018-02-25T01:49:14.070Z,-3.66
2018-02-25T01:50:14.031Z,-3.59
2018-02-25T01:51:14.004Z,-3.61
2018-02-25T01:52:13.963Z,-3.63
2018-02-25T01:53:13.918Z,-3.66
2018-02-25T01:54:13.894Z,-3.78
2018-02-25T01:55:13.848Z,-3.72
2018-02-25T01:56:13.563Z,-3.74
2018-02-25T01:57:13.784Z,-3.75
2018-02-25T01:58:13.752Z,-3.72
2018-02-25T01:59:13.703Z,-3.75
2018-02-25T02:00:13.423Z,-3.75
2018-02-25T02:01:13.381Z,-3.8
2018-02-25T02:02:13.596Z,-3.88
2018-02-25T02:03:13.569Z,-3.78
2018-02-25T02:04:13.525Z,-3.78
2018-02-25T02:05:13.487Z,-3.83
2018-02-25T02:06:13.199Z,-3.88
2018-02-25T02:07:13.416Z,-3.88
2018-02-25T02:08:13.374Z,-3.82
2018-02-25T02:09:13.342Z,-3.88
2018-02-25T02:10:13.309Z,-3.82
2018-02-25T02:11:13.267Z,-3.85
2018-02-25T02:12:13.233Z,-3.85
2018-02-25T02:13:13.194Z,-3.83
2018-02-25T02:14:13.165Z,-3.85
2018-02-25T02:15:13.119Z,-3.86
2018-02-25T02:16:13.088Z,-3.86
2018-02-25T02:17:13.051Z,-3.86
2018-02-25T02:18:13.012Z,-3.95
2018-02-25T02:19:12.975Z,-3.89
2018-02-25T02:20:12.691Z,-3.95
2018-02-25T02:21:12.903Z,-3.92
2018-02-25T02:22:12.621Z,-3.92
2018-02-25T02:23:12.830Z,-3.93
2018-02-25T02:24:12.798Z,-3.91
2018-02-25T02:25:12.510Z,-3.89
2018-02-25T02:26:12.720Z,-3.93
2018-02-25T02:27:12.432Z,-3.93
2018-02-25T02:28:12.648Z,-3.98
2018-02-25T02:29:12.609Z,-3.96
2018-02-25T02:30:12.572Z,-3.99
2018-02-25T02:31:12.548Z,-3.99
2018-02-25T02:32:12.514Z,-3.95
2018-02-25T02:33:12.469Z,-3.92
2018-02-25T02:34:12.428Z,-3.96
2018-02-25T02:35:12.401Z,-4.04
2018-02-25T02:36:12.106Z,-4.07
2018-02-25T02:37:12.317Z,-4.04
2018-02-25T02:38:12.283Z,-4.04
2018-02-25T02:39:12.253Z,-4.06
2018-02-25T02:40:11.957Z,-4.09
2018-02-25T02:41:11.922Z,-4.06
2018-02-25T02:42:12.133Z,-4.1
2018-02-25T02:43:12.100Z,-4.14
2018-02-25T02:44:12.063Z,-4.12
2018-02-25T02:45:12.029Z,-4.14
2018-02-25T02:46:11.986Z,-4.07
2018-02-25T02:47:11.952Z,-4.13
2018-02-25T02:48:11.917Z,-4.17
2018-02-25T02:49:11.877Z,-4.12
2018-02-25T02:50:11.842Z,-4.13
2018-02-25T02:51:11.842Z,-4.12
2018-02-25T02:52:11.772Z,-4.1
2018-02-25T02:53:11.745Z,-4.21
2018-02-25T02:54:11.693Z,-4.21
2018-02-25T02:55:11.663Z,-4.13
2018-02-25T02:56:11.630Z,-4.24
2018-02-25T02:57:11.582Z,-4.14
2018-02-25T02:58:11.563Z,-4.14
2018-02-25T02:59:11.519Z,-4.24
2018-02-25T03:00:11.479Z,-4.16
2018-02-25T03:01:11.431Z,-4.14
2018-02-25T03:02:11.393Z,-4.27
2018-02-25T03:03:11.356Z,-4.2
2018-02-25T03:04:11.345Z,-4.17
2018-02-25T03:05:11.290Z,-4.2
2018-02-25T03:06:11.255Z,-4.17
2018-02-25T03:07:11.210Z,-4.2
2018-02-25T03:08:11.177Z,-4.21
2018-02-25T03:09:11.137Z,-4.22
2018-02-25T03:10:11.102Z,-4.27
2018-02-25T03:11:11.068Z,-4.16
2018-02-25T03:12:11.031Z,-4.25
2018-02-25T03:13:10.989Z,-4.22
2018-02-25T03:14:10.961Z,-4.22
2018-02-25T03:15:10.919Z,-4.25
2018-02-25T03:16:10.881Z,-4.25
2018-02-25T03:17:10.596Z,-4.34
2018-02-25T03:18:10.810Z,-4.28
2018-02-25T03:19:10.769Z,-4.27
2018-02-25T03:20:10.485Z,-4.24
2018-02-25T03:21:10.698Z,-4.27
2018-02-25T03:22:10.710Z,-4.32
2018-02-25T03:23:10.624Z,-4.39
2018-02-25T03:24:10.588Z,-4.39
2018-02-25T03:25:10.549Z,-4.39
2018-02-25T03:26:10.525Z,-4.31
2018-02-25T03:27:10.228Z,-4.22
2018-02-25T03:28:10.449Z,-4.3
2018-02-25T03:29:10.404Z,-4.31
2018-02-25T03:30:10.375Z,-4.38
2018-02-25T03:31:10.333Z,-4.32
2018-02-25T03:32:09.793Z,-4.38
2018-02-25T03:33:10.257Z,-4.34
2018-02-25T03:34:10.214Z,-4.38
2018-02-25T03:35:10.182Z,-4.49
2018-02-25T03:36:10.140Z,-4.42
2018-02-25T03:37:10.104Z,-4.32
2018-02-25T03:38:10.069Z,-4.39
2018-02-25T03:39:10.039Z,-4.42
2018-02-25T03:40:09.747Z,-4.42
2018-02-25T03:41:09.962Z,-4.43
2018-02-25T03:42:09.919Z,-4.48
2018-02-25T03:43:09.881Z,-4.49
2018-02-25T03:44:09.598Z,-4.5
2018-02-25T03:45:09.560Z,-4.49
2018-02-25T03:46:09.797Z,-4.61
2018-02-25T03:47:09.739Z,-4.46
2018-02-25T03:48:09.698Z,-4.49
2018-02-25T03:49:09.664Z,-4.48
2018-02-25T03:50:09.622Z,-4.49
2018-02-25T03:51:09.595Z,-4.46
2018-02-25T03:52:09.552Z,-4.57
2018-02-25T03:53:09.516Z,-4.49
2018-02-25T03:54:09.476Z,-4.48
2018-02-25T03:55:09.441Z,-4.59
2018-02-25T03:56:09.405Z,-4.59
2018-02-25T03:57:09.367Z,-4.55
2018-02-25T03:58:09.333Z,-4.55
2018-02-25T03:59:09.044Z,-4.52
2018-02-25T04:00:09.258Z,-4.61
2018-02-25T04:01:09.218Z,-4.64
2018-02-25T04:02:09.179Z,-4.57
2018-02-25T04:03:08.892Z,-4.64
2018-02-25T04:04:09.104Z,-4.6
2018-02-25T04:05:09.087Z,-4.64
2018-02-25T04:06:08.825Z,-4.63
2018-02-25T04:07:08.775Z,-4.67
2018-02-25T04:08:08.985Z,-4.69
2018-02-25T04:09:08.996Z,-4.77
2018-02-25T04:10:08.890Z,-4.67
2018-02-25T04:11:08.852Z,-4.67
2018-02-25T04:12:08.819Z,-4.67
2018-02-25T04:13:08.780Z,-4.71
2018-02-25T04:14:08.756Z,-4.75
2018-02-25T04:15:08.749Z,-4.73
2018-02-25T04:16:08.723Z,-4.69
2018-02-25T04:17:08.414Z,-4.71
2018-02-25T04:18:08.613Z,-4.75
2018-02-25T04:19:08.582Z,-4.73
2018-02-25T04:20:08.515Z,-4.73
2018-02-25T04:21:08.527Z,-4.73
2018-02-25T04:22:07.935Z,-4.71
2018-02-25T04:23:08.214Z,-4.82
2018-02-25T04:24:08.114Z,-4.81
2018-02-25T04:25:08.377Z,-4.85
2018-02-25T04:26:08.035Z,-4.78
2018-02-25T04:27:08.003Z,-4.84
2018-02-25T04:28:08.213Z,-4.77
2018-02-25T04:29:07.928Z,-4.78
2018-02-25T04:30:07.888Z,-4.87
2018-02-25T04:31:08.101Z,-4.78
2018-02-25T04:32:08.060Z,-4.77
2018-02-25T04:33:08.028Z,-4.88
2018-02-25T04:34:07.745Z,-4.79
2018-02-25T04:35:07.951Z,-4.81
2018-02-25T04:36:07.912Z,-4.82
2018-02-25T04:37:07.878Z,-4.99
2018-02-25T04:38:07.837Z,-4.99
2018-02-25T04:39:07.899Z,-5.02
2018-02-25T04:40:07.770Z,-4.87
2018-02-25T04:41:07.735Z,-4.85
2018-02-25T04:42:07.689Z,-4.92
2018-02-25T04:43:07.654Z,-4.91
2018-02-25T04:44:07.613Z,-5
2018-02-25T04:45:07.580Z,-4.95
2018-02-25T04:46:07.542Z,-4.96
2018-02-25T04:47:07.504Z,-4.89
2018-02-25T04:48:07.820Z,-4.99
2018-02-25T04:49:07.429Z,-4.92
2018-02-25T04:50:07.143Z,-4.99
2018-02-25T04:51:07.105Z,-4.95
2018-02-25T04:52:07.321Z,-5.08
2018-02-25T04:53:07.280Z,-4.99
2018-02-25T04:54:07.247Z,-4.99
2018-02-25T04:55:07.205Z,-5.06
2018-02-25T04:56:07.195Z,-5.02
2018-02-25T04:57:07.135Z,-5.05
2018-02-25T04:58:07.091Z,-5.1
2018-02-25T04:59:07.054Z,-5.06
2018-02-25T05:00:07.019Z,-5.08
2018-02-25T05:01:06.775Z,-5.09
2018-02-25T05:02:06.946Z,-5.03
2018-02-25T05:03:06.907Z,-5.1
2018-02-25T05:04:06.871Z,-5.17
2018-02-25T05:05:06.831Z,-5.13
2018-02-25T05:06:06.788Z,-5.14
2018-02-25T05:07:06.513Z,-5.08
2018-02-25T05:08:06.719Z,-5.14
2018-02-25T05:09:06.680Z,-5.14
2018-02-25T05:10:06.651Z,-5.18
2018-02-25T05:11:06.609Z,-5.17
2018-02-25T05:12:06.571Z,-5.17
2018-02-25T05:13:06.584Z,-5.13
2018-02-25T05:14:06.249Z,-5.22
2018-02-25T05:15:06.456Z,-5.13
2018-02-25T05:16:07.488Z,-5.17
2018-02-25T05:17:06.383Z,-5.08
2018-02-25T05:18:06.341Z,-5.06
2018-02-25T05:19:06.305Z,-5.08
2018-02-25T05:20:06.272Z,-5.13
2018-02-25T05:21:05.982Z,-5.06
2018-02-25T05:22:06.192Z,-5.18
2018-02-25T05:23:06.153Z,-5.14
2018-02-25T05:24:06.117Z,-5.22
2018-02-25T05:25:06.119Z,-5.19
2018-02-25T05:26:05.800Z,-5.14
2018-02-25T05:27:05.758Z,-5.22
2018-02-25T05:28:05.968Z,-5.21
2018-02-25T05:29:05.942Z,-5.21
2018-02-25T05:30:05.396Z,-5.21
2018-02-25T05:31:05.357Z,-5.29
2018-02-25T05:32:05.567Z,-5.28
2018-02-25T05:33:05.780Z,-5.17
2018-02-25T05:34:05.740Z,-5.19
2018-02-25T05:35:05.709Z,-5.29
2018-02-25T05:36:05.670Z,-5.24
2018-02-25T05:37:05.632Z,-5.22
2018-02-25T05:38:05.592Z,-5.21
2018-02-25T05:39:05.306Z,-5.19
2018-02-25T05:40:05.529Z,-5.33
2018-02-25T05:41:05.480Z,-5.39
2018-02-25T05:42:05.195Z,-5.31
2018-02-25T05:43:05.410Z,-5.25
2018-02-25T05:44:04.869Z,-5.28
2018-02-25T05:45:05.333Z,-5.24
2018-02-25T05:46:05.291Z,-5.33
2018-02-25T05:47:05.256Z,-5.31
2018-02-25T05:48:04.966Z,-5.35
2018-02-25T05:49:05.176Z,-5.35
2018-02-25T05:50:05.151Z,-5.45
2018-02-25T05:51:04.854Z,-5.43
2018-02-25T05:52:05.079Z,-5.45
2018-02-25T05:53:05.032Z,-5.45
2018-02-25T05:54:04.746Z,-5.42
2018-02-25T05:55:04.954Z,-5.39
2018-02-25T05:56:04.666Z,-5.47
2018-02-25T05:57:04.881Z,-5.6
2018-02-25T05:58:04.843Z,-5.53
2018-02-25T05:59:04.804Z,-5.6
2018-02-25T06:00:04.769Z,-5.53
2018-02-25T06:01:04.730Z,-5.45
2018-02-25T06:02:04.688Z,-5.53
2018-02-25T06:03:04.651Z,-5.45
2018-02-25T06:04:04.614Z,-5.54
2018-02-25T06:05:04.576Z,-5.49
2018-02-25T06:06:04.535Z,-5.47
2018-02-25T06:07:04.509Z,-5.58
2018-02-25T06:08:04.464Z,-5.57
2018-02-25T06:09:04.421Z,-5.49
2018-02-25T06:10:04.384Z,-5.57
2018-02-25T06:11:04.354Z,-5.58
2018-02-25T06:12:04.321Z,-5.58
2018-02-25T06:13:04.272Z,-5.54
2018-02-25T06:14:04.234Z,-5.54
2018-02-25T06:15:04.202Z,-5.56
2018-02-25T06:16:04.163Z,-5.6
2018-02-25T06:17:04.131Z,-5.61
2018-02-25T06:18:03.835Z,-5.64
2018-02-25T06:19:03.796Z,-5.56
2018-02-25T06:20:04.004Z,-5.53
2018-02-25T06:21:03.471Z,-5.64
2018-02-25T06:22:03.681Z,-5.61
2018-02-25T06:23:03.935Z,-5.6
2018-02-25T06:24:03.871Z,-5.61
2018-02-25T06:25:03.324Z,-5.6
2018-02-25T06:26:03.778Z,-5.56
2018-02-25T06:27:03.755Z,-5.57
2018-02-25T06:28:03.459Z,-5.67
2018-02-25T06:29:03.737Z,-5.57
2018-02-25T06:30:03.382Z,-5.63
2018-02-25T06:31:03.340Z,-5.58
2018-02-25T06:32:03.309Z,-5.57
2018-02-25T06:33:03.267Z,-5.61
2018-02-25T06:34:03.229Z,-5.66
2018-02-25T06:35:03.194Z,-5.63
2018-02-25T06:36:03.403Z,-5.54
2018-02-25T06:37:03.365Z,-5.54
2018-02-25T06:38:03.331Z,-5.54
2018-02-25T06:39:03.045Z,-5.57
2018-02-25T06:40:03.249Z,-5.66
2018-02-25T06:41:03.214Z,-5.54
2018-02-25T06:42:02.934Z,-5.57
2018-02-25T06:43:02.890Z,-5.56
2018-02-25T06:44:03.102Z,-5.58
2018-02-25T06:45:02.816Z,-5.58
2018-02-25T06:46:03.023Z,-5.54
2018-02-25T06:47:02.739Z,-5.63
2018-02-25T06:48:02.947Z,-5.57
2018-02-25T06:49:02.664Z,-5.63
2018-02-25T06:50:02.877Z,-5.64
2018-02-25T06:51:02.586Z,-5.6
2018-02-25T06:52:02.796Z,-5.56
2018-02-25T06:53:02.815Z,-5.57
2018-02-25T06:54:02.475Z,-5.61
2018-02-25T06:55:02.691Z,-5.63
2018-02-25T06:56:02.660Z,-5.57
2018-02-25T06:57:02.362Z,-5.49
2018-02-25T06:58:02.577Z,-5.51
2018-02-25T06:59:02.536Z,-5.56
2018-02-25T07:00:02.502Z,-5.51
2018-02-25T07:01:02.462Z,-5.45
2018-02-25T07:02:02.432Z,-5.51
2018-02-25T07:03:02.383Z,-5.51
2018-02-25T07:04:02.346Z,-5.56
2018-02-25T07:05:02.309Z,-5.54
2018-02-25T07:06:02.019Z,-5.47
2018-02-25T07:07:02.231Z,-5.51
2018-02-25T07:08:02.326Z,-5.46
2018-02-25T07:09:02.161Z,-5.42
2018-02-25T07:10:01.872Z,-5.43
2018-02-25T07:11:02.085Z,-5.45
2018-02-25T07:12:02.047Z,-5.43
2018-02-25T07:13:02.006Z,-5.39
2018-02-25T07:14:01.968Z,-5.36
2018-02-25T07:15:01.683Z,-5.39
2018-02-25T07:16:01.931Z,-5.38
2018-02-25T07:17:01.857Z,-5.4
2018-02-25T07:18:01.573Z,-5.38
2018-02-25T07:19:01.781Z,-5.36
2018-02-25T07:20:01.757Z,-5.39
2018-02-25T07:21:01.462Z,-5.38
2018-02-25T07:22:01.683Z,-5.28
2018-02-25T07:23:01.648Z,-5.31
2018-02-25T07:24:01.351Z,-5.27
2018-02-25T07:25:01.563Z,-5.28
2018-02-25T07:26:01.516Z,-5.17
2018-02-25T07:27:01.483Z,-5.24
2018-02-25T07:28:01.444Z,-5.17
2018-02-25T07:29:01.157Z,-5.24
2018-02-25T07:30:01.375Z,-5.18
2018-02-25T07:31:01.340Z,-5.17
2018-02-25T07:32:01.301Z,-5.17
2018-02-25T07:33:01.260Z,-5.17
2018-02-25T07:34:01.230Z,-5.21
2018-02-25T07:35:01.186Z,-5.09
2018-02-25T07:36:01.152Z,-5.09
2018-02-25T07:37:01.114Z,-5.13
2018-02-25T07:38:01.074Z,-5.1
2018-02-25T07:39:01.032Z,-5.1
2018-02-25T07:40:00.998Z,-5.17
2018-02-25T07:41:00.960Z,-5.03
2018-02-25T07:42:00.673Z,-5.08
2018-02-25T07:43:00.899Z,-5.06
2018-02-25T07:44:00.855Z,-5.06
2018-02-25T07:45:00.813Z,-5.08
2018-02-25T07:46:00.771Z,-5.08
2018-02-25T07:47:00.736Z,-5.09
2018-02-25T07:48:00.711Z,-5.1
2018-02-25T07:49:00.416Z,-5.09
2018-02-25T07:50:00.699Z,-5.06
2018-02-25T07:51:00.590Z,-5
2018-02-25T07:52:00.556Z,-4.98
2018-02-25T07:53:00.522Z,-4.91
2018-02-25T07:54:00.479Z,-4.91
2018-02-25T07:55:00.441Z,-4.99
2018-02-25T07:56:00.428Z,-4.99
2018-02-25T07:57:00.364Z,-4.89
2018-02-25T07:58:00.334Z,-4.84
2018-02-25T07:59:00.298Z,-4.78
2018-02-25T08:00:00.267Z,-4.78
2018-02-25T08:01:00.222Z,-4.79
2018-02-25T08:02:00.185Z,-4.73
2018-02-25T08:03:00.145Z,-4.73
2018-02-25T08:04:00.106Z,-4.75
2018-02-25T08:05:00.075Z,-4.73
2018-02-25T08:06:00.039Z,-4.73
2018-02-25T08:06:59.992Z,-4.77
2018-02-25T08:07:59.964Z,-4.77
2018-02-25T08:08:59.923Z,-4.73
2018-02-25T08:09:59.662Z,-4.63
2018-02-25T08:10:59.957Z,-4.67
2018-02-25T08:11:59.823Z,-4.64
2018-02-25T08:12:59.780Z,-4.66
2018-02-25T08:13:59.789Z,-4.7
2018-02-25T08:14:59.702Z,-4.67
2018-02-25T08:15:59.678Z,-4.63
2018-02-25T08:16:59.381Z,-4.6
2018-02-25T08:17:59.346Z,-4.6
2018-02-25T08:18:59.553Z,-4.63
2018-02-25T08:19:59.514Z,-4.61
2018-02-25T08:20:59.241Z,-4.61
2018-02-25T08:21:59.446Z,-4.5
2018-02-25T08:22:59.156Z,-4.53
2018-02-25T08:23:59.374Z,-4.55
2018-02-25T08:24:59.333Z,-4.49
2018-02-25T08:25:59.049Z,-4.5
2018-02-25T08:26:59.263Z,-4.45
2018-02-25T08:27:58.980Z,-4.52
2018-02-25T08:28:59.188Z,-4.46
2018-02-25T08:29:59.152Z,-4.35
2018-02-25T08:30:59.114Z,-4.39
2018-02-25T08:31:58.835Z,-4.35
2018-02-25T08:32:59.046Z,-4.38
2018-02-25T08:33:59.005Z,-4.31
2018-02-25T08:34:58.724Z,-4.41
2018-02-25T08:35:58.685Z,-4.38
2018-02-25T08:36:59.292Z,-4.38
2018-02-25T08:37:59.044Z,-4.39
2018-02-25T08:38:58.822Z,-4.34
2018-02-25T08:39:58.782Z,-4.38
2018-02-25T08:40:58.748Z,-4.28
2018-02-25T08:41:58.727Z,-4.25
2018-02-25T08:42:58.675Z,-4.22
2018-02-25T08:43:58.642Z,-4.25
2018-02-25T08:44:58.603Z,-4.13
2018-02-25T08:45:58.573Z,-4.21
2018-02-25T08:46:58.534Z,-4.25
2018-02-25T08:47:58.492Z,-4.13
2018-02-25T08:48:58.464Z,-4.17
2018-02-25T08:49:58.422Z,-4.14
2018-02-25T08:50:58.134Z,-4.2
2018-02-25T08:51:58.348Z,-4.07
2018-02-25T08:52:58.316Z,-4.03
2018-02-25T08:53:58.276Z,-4.07
2018-02-25T08:54:58.242Z,-4.02
2018-02-25T08:55:58.205Z,-3.95
2018-02-25T08:56:58.172Z,-3.98
2018-02-25T08:57:57.883Z,-3.96
2018-02-25T08:58:58.094Z,-3.95
2018-02-25T08:59:58.057Z,-4.02
2018-02-25T09:00:58.018Z,-4.04
2018-02-25T09:01:57.992Z,-3.98
2018-02-25T09:02:57.951Z,-3.92
2018-02-25T09:03:57.912Z,-3.95
2018-02-25T09:04:57.886Z,-3.83
2018-02-25T09:05:57.845Z,-3.82
2018-02-25T09:06:57.859Z,-3.8
2018-02-25T09:07:57.779Z,-3.78
2018-02-25T09:08:57.735Z,-3.78
2018-02-25T09:09:57.695Z,-3.69
2018-02-25T09:10:57.659Z,-3.67
2018-02-25T09:11:57.701Z,-3.66
2018-02-25T09:12:57.603Z,-3.61
2018-02-25T09:13:57.555Z,-3.59
2018-02-25T09:14:57.517Z,-3.66
2018-02-25T09:15:57.482Z,-3.66
2018-02-25T09:16:57.447Z,-3.61
2018-02-25T09:17:57.406Z,-3.69
2018-02-25T09:18:57.379Z,-3.61
2018-02-25T09:19:57.345Z,-3.61
2018-02-25T09:20:57.054Z,-3.63
2018-02-25T09:21:57.272Z,-3.64
2018-02-25T09:22:56.981Z,-3.55
2018-02-25T09:23:57.204Z,-3.55
2018-02-25T09:24:56.912Z,-3.51
2018-02-25T09:25:56.891Z,-3.44
2018-02-25T09:26:57.092Z,-3.38
2018-02-25T09:27:57.053Z,-3.44
2018-02-25T09:28:57.018Z,-3.4
2018-02-25T09:29:57.005Z,-3.44
2018-02-25T09:30:56.953Z,-3.37
2018-02-25T09:31:56.910Z,-3.37
2018-02-25T09:32:56.878Z,-3.35
2018-02-25T09:33:56.844Z,-3.31
2018-02-25T09:34:56.602Z,-3.25
2018-02-25T09:35:56.889Z,-3.22
2018-02-25T09:36:56.732Z,-3.16
2018-02-25T09:37:56.702Z,-3.2
2018-02-25T09:38:56.666Z,-3.15
2018-02-25T09:39:56.386Z,-3.12
2018-02-25T09:40:56.645Z,-3.09
2018-02-25T09:41:56.563Z,-3.09
2018-02-25T09:42:56.524Z,-3.09
2018-02-25T09:43:56.495Z,-3.19
2018-02-25T09:44:56.450Z,-3.22
2018-02-25T09:45:56.424Z,-3.17
2018-02-25T09:46:56.381Z,-3.17
2018-02-25T09:47:56.359Z,-3.16
2018-02-25T09:48:56.067Z,-3.19
2018-02-25T09:49:56.032Z,-3.25
2018-02-25T09:50:55.996Z,-3.2
2018-02-25T09:51:56.212Z,-3.25
2018-02-25T09:52:56.177Z,-3.16
2018-02-25T09:53:56.150Z,-3.16
2018-02-25T09:54:56.101Z,-3.16
2018-02-25T09:55:56.068Z,-3.19
2018-02-25T09:56:56.040Z,-3.16
2018-02-25T09:57:55.995Z,-3.1
2018-02-25T09:58:55.967Z,-3.16
2018-02-25T09:59:55.926Z,-3.15
2018-02-25T10:00:55.896Z,-3.1
2018-02-25T10:01:55.855Z,-2.99
2018-02-25T10:02:55.823Z,-3.02
2018-02-25T10:03:55.540Z,-2.94
2018-02-25T10:04:55.749Z,-2.97
2018-02-25T10:05:55.756Z,-2.89
2018-02-25T10:06:55.681Z,-2.98
2018-02-25T10:07:55.701Z,-2.91
2018-02-25T10:08:55.612Z,-2.89
2018-02-25T10:09:55.807Z,-2.89
2018-02-25T10:10:55.302Z,-2.91
2018-02-25T10:11:55.501Z,-2.91
2018-02-25T10:12:55.470Z,-2.91
2018-02-25T10:13:55.442Z,-3.01
2018-02-25T10:14:55.398Z,-3.01
2018-02-25T10:15:55.362Z,-2.86
2018-02-25T10:16:55.079Z,-2.89
2018-02-25T10:17:55.040Z,-2.88
2018-02-25T10:18:55.255Z,-2.92
2018-02-25T10:19:55.224Z,-2.91
2018-02-25T10:20:55.186Z,-2.89
2018-02-25T10:21:55.174Z,-2.89
2018-02-25T10:22:55.118Z,-2.86
2018-02-25T10:23:54.832Z,-2.8
2018-02-25T10:24:54.793Z,-2.8
2018-02-25T10:25:55.007Z,-2.73
2018-02-25T10:26:54.971Z,-2.73
2018-02-25T10:27:54.935Z,-2.74
2018-02-25T10:28:54.902Z,-2.62
2018-02-25T10:29:54.876Z,-2.6
2018-02-25T10:30:54.832Z,-2.76
2018-02-25T10:31:54.797Z,-2.74
2018-02-25T10:32:54.759Z,-2.58
2018-02-25T10:33:54.743Z,-2.7
2018-02-25T10:34:54.444Z,-2.53
2018-02-25T10:35:54.662Z,-2.53
2018-02-25T10:36:54.627Z,-2.56
2018-02-25T10:37:54.597Z,-2.52
2018-02-25T10:38:54.559Z,-2.55
2018-02-25T10:39:54.524Z,-2.52
2018-02-25T10:40:54.234Z,-2.47
2018-02-25T10:41:54.447Z,-2.44
2018-02-25T10:42:54.416Z,-2.5
2018-02-25T10:43:54.380Z,-2.52
2018-02-25T10:44:54.098Z,-2.53
2018-02-25T10:45:54.306Z,-2.44
2018-02-25T10:46:54.279Z,-2.35
2018-02-25T10:47:53.994Z,-2.38
2018-02-25T10:48:54.203Z,-2.34
2018-02-25T10:49:54.169Z,-2.28
2018-02-25T10:50:53.888Z,-2.26
2018-02-25T10:51:54.104Z,-2.38
2018-02-25T10:52:54.066Z,-2.3
2018-02-25T10:53:54.032Z,-2.35
2018-02-25T10:54:53.995Z,-2.38
2018-02-25T10:55:53.960Z,-2.35
2018-02-25T10:56:53.922Z,-2.38
2018-02-25T10:57:53.897Z,-2.38
2018-02-25T10:58:53.855Z,-2.4
2018-02-25T10:59:53.573Z,-2.3
2018-02-25T11:00:53.795Z,-2.37
2018-02-25T11:01:53.751Z,-2.25
2018-02-25T11:02:53.714Z,-2.18
2018-02-25T11:03:53.681Z,-2.18
2018-02-25T11:04:53.653Z,-2.15
2018-02-25T11:05:53.614Z,-2.12
2018-02-25T11:06:53.579Z,-2.08
2018-02-25T11:07:53.544Z,-2.12
2018-02-25T11:08:53.513Z,-2.12
2018-02-25T11:09:53.226Z,-2.1
2018-02-25T11:10:53.442Z,-2.1
2018-02-25T11:11:53.411Z,-2.12
2018-02-25T11:12:53.466Z,-2.12
2018-02-25T11:13:53.337Z,-1.95
2018-02-25T11:14:53.051Z,-1.95
2018-02-25T11:15:53.267Z,-1.94
2018-02-25T11:16:53.243Z,-1.83
2018-02-25T11:17:52.947Z,-1.84
2018-02-25T11:18:52.915Z,-1.89
2018-02-25T11:19:53.128Z,-1.76
2018-02-25T11:20:53.221Z,-1.71
2018-02-25T11:21:52.810Z,-1.72
2018-02-25T11:22:52.777Z,-1.77
2018-02-25T11:23:52.743Z,-1.71
2018-02-25T11:24:52.710Z,-1.53
2018-02-25T11:25:52.928Z,-1.58
2018-02-25T11:26:52.892Z,-1.58
2018-02-25T11:27:52.606Z,-1.59
2018-02-25T11:28:52.818Z,-1.56
2018-02-25T11:29:52.787Z,-1.54
2018-02-25T11:30:52.511Z,-1.61
2018-02-25T11:31:53.758Z,-1.62
2018-02-25T11:32:52.898Z,-1.62
2018-02-25T11:33:52.668Z,-1.66
2018-02-25T11:34:52.650Z,-1.66
2018-02-25T11:35:52.368Z,-1.65
2018-02-25T11:36:53.302Z,-1.64
2018-02-25T11:37:52.512Z,-1.68
2018-02-25T11:38:52.519Z,-1.64
2018-02-25T11:39:52.446Z,-1.53
2018-02-25T11:40:52.417Z,-1.51
2018-02-25T11:41:52.380Z,-1.58
2018-02-25T11:42:52.345Z,-1.46
2018-02-25T11:43:52.314Z,-1.35
2018-02-25T11:44:52.277Z,-1.4
2018-02-25T11:45:53.120Z,-1.48
2018-02-25T11:46:52.206Z,-1.5
2018-02-25T11:47:52.173Z,-1.37
2018-02-25T11:48:51.897Z,-1.35
2018-02-25T11:49:51.855Z,-1.41
2018-02-25T11:50:52.074Z,-1.35
2018-02-25T11:51:52.045Z,-1.35
2018-02-25T11:52:54.238Z,-1.27
2018-02-25T11:53:51.971Z,-1.17
2018-02-25T11:54:51.684Z,-1.26
2018-02-25T11:55:51.902Z,-1.14
2018-02-25T11:56:51.871Z,-1.17
2018-02-25T11:57:51.582Z,-1.15
2018-02-25T11:58:51.796Z,-1.19
2018-02-25T11:59:51.514Z,-1.22
2018-02-25T12:00:51.731Z,-1.09
2018-02-25T12:01:51.698Z,-1.23
2018-02-25T12:02:51.662Z,-1.19
2018-02-25T12:03:51.628Z,-1.14
2018-02-25T12:04:51.590Z,-1.09
2018-02-25T12:05:51.562Z,-1.09
2018-02-25T12:06:51.278Z,-1.17
2018-02-25T12:07:52.941Z,-1.12
2018-02-25T12:08:51.453Z,-1.17
2018-02-25T12:09:51.930Z,-1.14
2018-02-25T12:10:51.390Z,-1.09
2018-02-25T12:11:51.358Z,-1.17
2018-02-25T12:12:51.078Z,-1.07
2018-02-25T12:13:51.288Z,-1.07
2018-02-25T12:14:51.010Z,-0.97
2018-02-25T12:15:51.232Z,-0.93
2018-02-25T12:16:51.186Z,-0.94
2018-02-25T12:17:50.909Z,-0.9
2018-02-25T12:18:50.876Z,-0.85
2018-02-25T12:19:51.274Z,-0.78
2018-02-25T12:20:50.806Z,-0.8
2018-02-25T12:21:51.022Z,-0.83
2018-02-25T12:22:50.738Z,-0.89
2018-02-25T12:23:50.957Z,-0.89
2018-02-25T12:24:50.930Z,-0.75
2018-02-25T12:25:50.642Z,-0.77
2018-02-25T12:26:50.603Z,-0.78
2018-02-25T12:27:50.567Z,-0.83
2018-02-25T12:28:50.785Z,-0.82
2018-02-25T12:29:50.756Z,-0.8
2018-02-25T12:30:50.723Z,-0.8
2018-02-25T12:31:50.683Z,-0.75
2018-02-25T12:32:50.403Z,-0.65
2018-02-25T12:33:50.618Z,-0.59
2018-02-25T12:34:50.340Z,-0.65
2018-02-25T12:35:50.547Z,-0.59
2018-02-25T12:36:50.517Z,-0.65
2018-02-25T12:37:50.237Z,-0.49
2018-02-25T12:38:50.201Z,-0.65
2018-02-25T12:39:50.171Z,-0.61
2018-02-25T12:40:50.136Z,-0.47
2018-02-25T12:41:50.348Z,-0.47
2018-02-25T12:42:50.317Z,-0.41
2018-02-25T12:43:50.032Z,-0.35
2018-02-25T12:44:50.001Z,-0.35
2018-02-25T12:45:50.212Z,-0.31
2018-02-25T12:46:50.183Z,-0.21
2018-02-25T12:47:49.900Z,-0.23
2018-02-25T12:48:50.118Z,-0.32
2018-02-25T12:49:50.084Z,-0.36
2018-02-25T12:50:50.050Z,-0.38
2018-02-25T12:51:50.017Z,-0.41
2018-02-25T12:52:49.997Z,-0.36
2018-02-25T12:53:49.951Z,-0.41